Time;durP1;ratioP1;P1;durP2;ratioP2;P2;SDS_P1;SDS_P2;PMS_P1;PMS_P2;Temp;Humidity;BMP_temperature;BMP_pressure;BME280_temperature;BME280_humidity;BME280_pressure;Samples;Min_cycle;Max_cycle;Signal;HPM_P1;HPM_P2
2022/05/22 00:02:32;;;;;;;16.13;7.28;;;;;;;15.57;64.45;100183.56;5032626;28;20099;-63
2022/05/22 00:05:20;;;;;;;14.55;7.80;;;;;;;15.54;64.36;100189.66;5033409;28;20076;-64
2022/05/22 00:08:04;;;;;;;12.05;6.97;;;;;;;15.53;64.48;100182.69;5032777;28;20080;-63
2022/05/22 00:10:51;;;;;;;14.70;8.18;;;;;;;15.51;64.50;100174.84;5032604;28;20048;-63
2022/05/22 00:13:40;;;;;;;11.93;7.18;;;;;;;15.50;64.41;100174.88;5033547;28;20059;-62
2022/05/22 00:16:37;;;;;;;10.77;7.15;;;;;;;15.47;64.48;100167.91;5033075;28;20175;-63
2022/05/22 00:19:26;;;;;;;16.00;6.90;;;;;;;15.47;64.57;100172.25;5032187;28;20047;-62
2022/05/22 00:22:11;;;;;;;16.70;8.80;;;;;;;15.47;64.46;100173.13;5032671;28;20416;-64
2022/05/22 00:24:55;;;;;;;16.85;7.70;;;;;;;15.45;64.42;100172.28;5033086;28;20134;-63
2022/05/22 00:27:43;;;;;;;16.40;7.22;;;;;;;15.43;64.39;100176.63;5032538;28;20039;-64
2022/05/22 00:30:27;;;;;;;16.30;7.25;;;;;;;15.43;64.36;100165.28;5032665;28;20515;-63
2022/05/22 00:33:16;;;;;;;15.90;8.05;;;;;;;15.39;64.53;100164.44;5033604;28;20051;-63
2022/05/22 00:36:09;;;;;;;9.85;7.32;;;;;;;15.39;64.50;100161.81;5032336;28;20053;-63
2022/05/22 00:39:01;;;;;;;14.98;7.82;;;;;;;15.37;64.51;100174.00;5032689;28;20048;-63
2022/05/22 00:41:59;;;;;;;14.65;7.32;;;;;;;15.36;64.81;100172.28;5033462;28;20416;-63
2022/05/22 00:44:47;;;;;;;13.05;7.00;;;;;;;15.35;64.74;100173.13;5033656;28;20095;-64
2022/05/22 00:47:31;;;;;;;12.63;7.35;;;;;;;15.33;64.81;100182.75;5033153;28;20515;-63
2022/05/22 00:50:21;;;;;;;16.35;6.97;;;;;;;15.31;64.70;100180.13;5032796;28;20052;-62
2022/05/22 00:53:12;;;;;;;17.08;7.88;;;;;;;15.31;64.77;100187.09;5032159;28;20048;-62
2022/05/22 00:56:09;;;;;;;13.35;7.30;;;;;;;15.28;64.61;100184.47;5032685;28;20542;-63
2022/05/22 00:59:00;;;;;;;10.75;7.38;;;;;;;15.25;64.81;100169.69;5032232;28;20584;-63
2022/05/22 01:01:46;;;;;;;9.00;7.90;;;;;;;15.25;64.79;100176.63;5032593;28;20091;-63
2022/05/22 01:04:36;;;;;;;13.70;8.38;;;;;;;15.25;64.94;100179.25;5033297;28;20080;-63
2022/05/22 01:07:20;;;;;;;11.05;7.30;;;;;;;15.22;64.99;100170.56;5032432;28;20080;-64
2022/05/22 01:10:07;;;;;;;16.90;8.07;;;;;;;15.20;64.86;100164.44;5033331;28;20409;-63
2022/05/22 01:12:54;;;;;;;12.45;7.30;;;;;;;15.21;64.78;100178.41;5032254;28;20191;-63
2022/05/22 01:15:41;;;;;;;11.82;7.35;;;;;;;15.19;65.08;100170.53;5032430;28;20171;-63
2022/05/22 01:18:26;;;;;;;13.88;8.02;;;;;;;15.19;64.94;100178.38;5032157;28;20548;-62
2022/05/22 01:21:36;;;;;;;14.10;7.78;;;;;;;15.19;64.86;100160.09;5032406;28;20068;-63
2022/05/22 01:24:26;;;;;;;16.60;7.80;;;;;;;15.17;64.85;100148.81;5032317;28;20048;-63
2022/05/22 01:27:18;;;;;;;13.50;7.35;;;;;;;15.13;64.94;100144.47;5032111;28;20048;-63
2022/05/22 01:30:14;;;;;;;14.35;8.25;;;;;;;15.14;65.14;100130.53;5033305;28;20068;-63
2022/05/22 01:33:01;;;;;;;13.85;7.57;;;;;;;15.11;65.06;100125.31;5032267;28;20401;-65
2022/05/22 01:35:48;;;;;;;12.60;7.22;;;;;;;15.11;65.03;100140.97;5032895;28;20072;-64
2022/05/22 01:38:33;;;;;;;13.55;7.72;;;;;;;15.10;65.11;100135.78;5031823;28;20096;-63
2022/05/22 01:41:18;;;;;;;15.75;8.00;;;;;;;15.07;65.07;100140.13;5034729;28;20072;-63
2022/05/22 01:44:05;;;;;;;12.77;8.40;;;;;;;15.07;65.01;100132.28;5036394;28;20515;-63
2022/05/22 01:46:58;;;;;;;9.70;6.70;;;;;;;15.08;64.91;100125.31;5036374;28;20044;-63
2022/05/22 01:49:47;;;;;;;12.50;7.60;;;;;;;15.05;65.31;100122.72;5035571;28;20139;-64
2022/05/22 01:52:36;;;;;;;13.88;7.85;;;;;;;15.03;64.97;100116.63;5035600;28;20056;-63
2022/05/22 01:55:25;;;;;;;11.13;7.68;;;;;;;15.01;64.91;100118.38;5035557;28;20103;-63
2022/05/22 01:58:15;;;;;;;12.63;6.80;;;;;;;14.98;64.99;100106.19;5035176;28;20511;-61
2022/05/22 02:01:00;;;;;;;11.73;7.95;;;;;;;14.92;65.12;100104.47;5035675;28;20047;-63
2022/05/22 02:03:46;;;;;;;11.25;7.50;;;;;;;14.91;64.99;100094.88;5036170;28;20052;-63
2022/05/22 02:06:33;;;;;;;15.75;7.53;;;;;;;14.89;64.96;100095.78;5035000;28;20048;-62
2022/05/22 02:09:17;;;;;;;12.57;8.45;;;;;;;14.84;64.99;100094.91;5034835;28;20607;-62
2022/05/22 02:12:04;;;;;;;13.38;7.75;;;;;;;14.83;65.10;100100.97;5035717;28;20460;-63
2022/05/22 02:14:57;;;;;;;17.52;8.68;;;;;;;14.79;65.25;100094.91;5035104;28;20075;-63
2022/05/22 02:17:49;;;;;;;12.57;8.18;;;;;;;14.80;65.04;100093.16;5036156;28;20128;-63
2022/05/22 02:20:33;;;;;;;13.90;8.32;;;;;;;14.79;65.12;100094.91;5035883;28;20121;-63
2022/05/22 02:23:22;;;;;;;10.75;7.18;;;;;;;14.78;65.12;100095.78;5035972;28;20060;-62
2022/05/22 02:26:11;;;;;;;15.38;8.00;;;;;;;14.78;65.13;100090.56;5034975;28;20048;-62
2022/05/22 02:29:01;;;;;;;15.85;8.15;;;;;;;14.77;65.14;100096.66;5034303;28;20095;-63
2022/05/22 02:31:48;;;;;;;11.15;7.93;;;;;;;14.77;65.14;100094.91;5034569;28;20412;-64
2022/05/22 02:34:40;;;;;;;15.50;8.35;;;;;;;14.76;65.24;100095.78;5034780;28;20095;-63
2022/05/22 02:37:27;;;;;;;14.90;7.88;;;;;;;14.79;65.26;100087.09;5034101;28;20531;-62
2022/05/22 02:40:17;;;;;;;13.70;8.27;;;;;;;14.76;65.10;100084.47;5034695;28;20056;-62
2022/05/22 02:43:06;;;;;;;13.52;8.75;;;;;;;14.74;65.20;100087.09;5035464;28;20051;-63
2022/05/22 02:45:51;;;;;;;12.05;7.95;;;;;;;14.72;65.46;100091.44;5034669;28;20079;-63
2022/05/22 02:48:37;;;;;;;16.35;8.15;;;;;;;14.70;65.19;100084.50;5035022;28;20049;-63
2022/05/22 02:51:22;;;;;;;11.40;8.23;;;;;;;14.68;65.13;100087.06;5035586;28;20110;-64
2022/05/22 02:54:05;;;;;;;17.88;7.97;;;;;;;14.67;65.32;100074.03;5034826;28;20551;-63
2022/05/22 02:56:55;;;;;;;16.65;8.57;;;;;;;14.66;65.09;100073.13;5034612;28;20099;-62
2022/05/22 02:59:39;;;;;;;12.77;8.05;;;;;;;14.65;65.17;100070.53;5034491;28;20099;-63
2022/05/22 03:02:23;;;;;;;13.40;8.02;;;;;;;14.64;65.32;100069.66;5035190;28;20051;-63
2022/05/22 03:05:10;;;;;;;14.40;8.23;;;;;;;14.65;65.31;100062.72;5034159;28;20196;-63
2022/05/22 03:07:55;;;;;;;18.15;8.07;;;;;;;14.62;65.37;100054.00;5034051;28;20128;-63
2022/05/22 03:10:46;;;;;;;12.00;8.05;;;;;;;14.62;65.34;100048.78;5034635;28;20051;-63
2022/05/22 03:13:33;;;;;;;12.43;7.13;;;;;;;14.60;65.45;100042.72;5035040;28;20068;-63
2022/05/22 03:16:20;;;;;;;19.27;8.77;;;;;;;14.60;65.42;100042.72;5034457;28;20060;-64
2022/05/22 03:19:07;;;;;;;17.00;7.80;;;;;;;14.62;65.34;100046.19;5034173;28;20053;-63
2022/05/22 03:21:51;;;;;;;16.05;7.25;;;;;;;14.64;65.14;100047.94;5034886;28;20069;-63
2022/05/22 03:24:38;;;;;;;14.63;7.63;;;;;;;14.62;65.44;100043.59;5034819;28;20099;-63
2022/05/22 03:27:28;;;;;;;18.00;7.70;;;;;;;14.61;65.34;100049.66;5033849;28;20136;-63
2022/05/22 03:30:12;;;;;;;13.57;7.03;;;;;;;14.61;65.22;100044.44;5034132;28;20095;-64
2022/05/22 03:32:59;;;;;;;;;;;;;;;14.58;65.22;100051.41;5034490;28;20060;-63
2022/05/22 03:35:46;;;;;;;18.45;8.38;;;;;;;14.58;65.23;100059.25;5033799;28;20383;-63
2022/05/22 03:38:31;;;;;;;19.83;8.30;;;;;;;14.57;65.27;100054.88;5034401;28;20179;-64
2022/05/22 03:41:15;;;;;;;14.57;7.90;;;;;;;14.56;65.39;100050.53;5033534;28;20056;-64
2022/05/22 03:44:05;;;;;;;17.63;8.75;;;;;;;14.55;65.46;100051.41;5033102;28;20098;-63
2022/05/22 03:46:49;;;;;;;24.20;8.82;;;;;;;14.53;65.79;100048.81;5033450;28;20099;-63
2022/05/22 03:50:29;;;;;;;14.82;8.10;;;;;;;14.51;65.39;100047.94;5131960;27;20136;-62
2022/05/22 03:53:16;;;;;;;20.17;8.93;;;;;;;14.51;65.58;100047.06;5131858;28;20046;-62
2022/05/22 03:56:18;;;;;;;14.07;8.32;;;;;;;14.49;65.48;100038.34;5131651;28;20050;-63
2022/05/22 03:59:03;;;;;;;15.00;8.02;;;;;;;14.46;65.72;100039.25;5131542;28;20100;-62
2022/05/22 04:01:46;;;;;;;18.08;7.30;;;;;;;14.45;65.53;100040.09;5131536;28;20084;-64
2022/05/22 04:04:39;;;;;;;20.40;8.25;;;;;;;14.44;65.48;100049.69;5131634;28;20555;-63
2022/05/22 04:07:29;;;;;;;20.02;7.63;;;;;;;14.43;65.44;100044.44;5116432;28;20113;-63
2022/05/22 04:10:19;;;;;;;18.70;8.35;;;;;;;14.41;65.57;100039.25;5115714;28;20117;-63
2022/05/22 04:13:07;;;;;;;15.02;8.30;;;;;;;14.42;65.55;100040.97;5131034;28;20039;-63
2022/05/22 04:15:51;;;;;;;22.38;8.35;;;;;;;14.39;65.52;100043.59;5131007;28;20055;-62
2022/05/22 04:18:36;;;;;;;15.15;7.88;;;;;;;14.40;65.47;100044.47;5115964;28;20123;-63
2022/05/22 04:21:28;;;;;;;;;;;;;;;14.38;65.43;100051.41;5131703;28;20474;-62
2022/05/22 04:27:15;;;;;;;19.30;7.35;;;;;;;14.37;65.69;100044.47;5131189;28;20046;-62
2022/05/22 04:29:59;;;;;;;17.15;8.85;;;;;;;14.35;65.85;100036.63;5115730;28;20096;-63
2022/05/22 04:32:49;;;;;;;16.95;8.40;;;;;;;14.35;65.68;100043.59;5131487;28;20038;-63
2022/05/22 04:35:39;;;;;;;15.18;8.02;;;;;;;14.33;65.37;100033.16;5130897;28;20046;-63
2022/05/22 04:38:28;;;;;;;16.77;9.38;;;;;;;14.34;65.64;100031.41;5115407;28;20057;-63
2022/05/22 04:41:12;;;;;;;16.00;8.75;;;;;;;14.34;65.55;100036.63;5115826;28;20113;-63
2022/05/22 04:44:02;;;;;;;13.98;7.72;;;;;;;14.34;65.56;100041.84;5115296;28;20050;-63
2022/05/22 04:46:52;;;;;;;13.77;7.72;;;;;;;14.34;65.71;100045.31;5130475;28;20054;-64
2022/05/22 04:49:36;;;;;;;14.85;7.13;;;;;;;14.33;65.71;100040.97;5115114;28;20062;-62
2022/05/22 04:52:26;;;;;;;17.27;8.25;;;;;;;14.34;65.72;100044.47;5130678;28;20039;-62
2022/05/22 04:55:13;;;;;;;11.98;7.20;;;;;;;14.32;65.55;100050.53;5130524;28;20041;-62
2022/05/22 04:58:00;;;;;;;14.68;7.13;;;;;;;14.32;65.69;100040.09;5130417;28;20155;-63
2022/05/22 05:00:52;;;;;;;15.45;6.90;;;;;;;14.30;65.66;100041.84;5107991;28;20078;-62
2022/05/22 05:03:42;;;;;;;23.75;8.48;;;;;;;14.28;65.72;100046.19;5116659;28;20062;-63
2022/05/22 05:06:30;;;;;;;17.15;7.50;;;;;;;14.29;65.35;100045.31;5101570;28;20058;-62
2022/05/22 05:09:22;;;;;;;12.18;7.90;;;;;;;14.28;65.59;100051.41;5101336;28;20043;-63
2022/05/22 05:12:12;;;;;;;12.13;6.38;;;;;;;14.29;65.51;100041.84;5101564;28;20054;-64
2022/05/22 05:14:59;;;;;;;18.52;7.47;;;;;;;14.28;65.69;100046.19;5116811;28;20509;-63
2022/05/22 05:17:48;;;;;;;12.95;6.57;;;;;;;14.28;65.82;100059.22;5116801;28;20086;-62
2022/05/22 05:20:38;;;;;;;12.80;6.45;;;;;;;14.30;65.56;100049.66;5100871;28;20123;-63
2022/05/22 05:23:24;;;;;;;9.25;6.22;;;;;;;14.30;65.74;100054.88;5129967;27;20050;-62
2022/05/22 05:26:14;;;;;;;12.80;6.93;;;;;;;14.29;65.66;100047.06;5100868;28;20529;-63
2022/05/22 05:29:01;;;;;;;9.95;6.53;;;;;;;14.31;65.64;100048.78;5101066;28;20104;-63
2022/05/22 05:31:45;;;;;;;11.20;6.20;;;;;;;14.31;65.48;100060.97;5116028;28;20127;-62
2022/05/22 05:34:34;;;;;;;15.55;6.97;;;;;;;14.30;65.81;100054.88;5116618;28;20050;-62
2022/05/22 05:37:18;;;;;;;8.77;5.93;;;;;;;14.32;65.88;100060.97;5115723;28;20051;-63
2022/05/22 05:40:03;;;;;;;19.02;7.25;;;;;;;14.35;65.74;100054.03;5100897;28;20108;-63
2022/05/22 05:42:54;;;;;;;;;;;;;;;14.32;65.58;100047.94;5101114;28;20042;-62
2022/05/22 05:45:44;;;;;;;18.02;7.05;;;;;;;14.34;65.66;100054.88;5100339;28;19918;-63
2022/05/22 05:48:37;;;;;;;15.15;6.40;;;;;;;14.35;65.69;100044.44;5100335;28;20460;-63
2022/05/22 05:51:21;;;;;;;13.77;7.15;;;;;;;14.38;65.59;100054.88;5100459;28;20047;-63
2022/05/22 05:54:14;;;;;;;19.88;7.00;;;;;;;14.40;65.51;100047.94;5100486;28;20047;-63
2022/05/22 05:57:07;;;;;;;18.30;7.20;;;;;;;14.41;65.96;100054.88;5116008;28;20045;-63
2022/05/22 05:59:58;;;;;;;14.70;7.28;;;;;;;14.41;65.64;100052.28;5100744;28;20042;-64
2022/05/22 06:02:44;;;;;;;16.65;7.25;;;;;;;14.41;65.57;100056.59;5100294;28;20047;-62
2022/05/22 06:05:30;;;;;;;17.17;7.32;;;;;;;14.41;65.75;100056.59;5100585;28;20452;-62
2022/05/22 06:08:20;;;;;;;17.00;7.50;;;;;;;14.42;65.50;100053.13;5100431;28;20051;-62
2022/05/22 06:11:08;;;;;;;16.88;7.65;;;;;;;14.44;65.60;100057.50;5115418;28;20090;-64
2022/05/22 06:13:55;;;;;;;19.35;7.47;;;;;;;14.44;65.60;100060.09;5115269;28;20451;-63
2022/05/22 06:16:43;;;;;;;20.30;7.70;;;;;;;14.45;65.43;100056.63;5115322;28;20116;-63
2022/05/22 06:22:34;;;;;;;22.38;7.80;;;;;;;14.48;65.58;100045.31;5115411;28;20050;-63
2022/05/22 06:25:23;;;;;;;17.00;7.55;;;;;;;14.47;65.54;100046.19;5115018;28;20186;-64
2022/05/22 06:28:10;;;;;;;15.18;7.70;;;;;;;14.49;65.74;100036.63;5115115;28;20047;-63
2022/05/22 06:31:01;;;;;;;18.27;7.55;;;;;;;14.53;65.75;100043.59;5100032;28;20096;-63
2022/05/22 06:33:51;;;;;;;12.10;6.15;;;;;;;14.55;65.62;100041.88;5114836;28;20050;-63
2022/05/22 06:36:42;;;;;;;16.20;6.05;;;;;;;14.56;65.62;100046.19;5099778;28;20042;-63
2022/05/22 06:42:42;;;;;;;12.38;5.97;;;;;;;14.60;65.51;100044.47;5115465;28;20088;-64
2022/05/22 06:45:31;;;;;;;9.25;5.57;;;;;;;14.61;65.55;100041.84;5114787;28;20482;-62
2022/05/22 06:48:21;;;;;;;10.95;5.78;;;;;;;14.61;65.32;100041.84;5099388;28;20046;-63
2022/05/22 06:51:15;;;;;;;10.27;5.68;;;;;;;14.62;65.55;100040.97;5099701;28;20046;-62
2022/05/22 06:54:08;;;;;;;9.10;5.55;;;;;;;14.66;65.68;100040.97;5099719;28;20151;-63
2022/05/22 06:56:55;;;;;;;12.68;5.85;;;;;;;14.66;65.45;100030.53;5099033;28;20510;-63
2022/05/22 06:59:47;;;;;;;10.98;5.72;;;;;;;14.67;65.39;100029.69;5099462;28;20055;-63
2022/05/22 07:02:36;;;;;;;7.43;4.70;;;;;;;14.68;65.36;100029.69;5114202;28;20092;-62
2022/05/22 07:05:21;;;;;;;16.77;6.00;;;;;;;14.69;65.36;100038.41;5099456;28;20497;-63
2022/05/22 07:08:05;;;;;;;8.45;5.25;;;;;;;14.70;65.27;100041.00;5099148;28;20406;-63
2022/05/22 07:14:01;;;;;;;12.23;5.60;;;;;;;14.73;65.38;100035.78;5114304;28;20064;-63
2022/05/22 07:16:51;;;;;;;13.57;5.45;;;;;;;14.76;65.37;100037.50;5099076;28;20127;-63
2022/05/22 07:19:37;;;;;;;9.02;4.78;;;;;;;14.77;65.54;100026.22;5114313;28;20073;-62
2022/05/22 07:22:26;;;;;;;10.23;4.80;;;;;;;14.79;65.51;100031.44;5114407;28;20115;-64
2022/05/22 07:25:10;;;;;;;11.75;5.63;;;;;;;14.80;65.55;100028.81;5113997;28;20509;-63
2022/05/22 07:27:56;;;;;;;11.23;6.07;;;;;;;14.83;65.47;100028.81;5114524;28;20047;-64
2022/05/22 07:30:43;;;;;;;11.90;5.45;;;;;;;14.85;65.66;100029.69;5114134;28;20074;-63
2022/05/22 07:33:30;;;;;;;9.88;5.30;;;;;;;14.87;65.43;100027.06;5098769;28;20051;-63
2022/05/22 07:36:17;;;;;;;12.80;5.85;;;;;;;14.89;65.42;100020.09;5114354;28;20051;-62
2022/05/22 07:39:05;;;;;;;10.80;6.45;;;;;;;14.89;65.54;100020.97;5098776;28;20097;-62
2022/05/22 07:41:49;;;;;;;11.43;5.82;;;;;;;14.92;65.50;100022.72;5098904;28;20092;-62
2022/05/22 07:44:33;;;;;;;10.77;5.95;;;;;;;14.94;65.54;100020.97;5098839;28;20411;-62
2022/05/22 07:47:23;;;;;;;7.47;5.63;;;;;;;14.95;65.39;100020.06;5113900;28;20054;-64
2022/05/22 07:50:17;;;;;;;9.25;5.55;;;;;;;14.96;65.61;100018.34;5098263;28;20180;-63
2022/05/22 07:53:02;;;;;;;16.17;6.40;;;;;;;14.96;65.60;100008.75;5113657;28;20575;-63
2022/05/22 07:55:51;;;;;;;12.68;6.28;;;;;;;14.99;65.50;100010.53;5098808;28;20042;-62
2022/05/22 07:58:38;;;;;;;15.27;6.55;;;;;;;15.02;65.47;100011.38;5098347;28;20141;-63
2022/05/22 08:01:25;;;;;;;11.10;6.00;;;;;;;15.03;65.42;99999.19;5114038;28;20042;-63
2022/05/22 08:04:15;;;;;;;10.05;5.90;;;;;;;15.04;65.31;99996.59;5113794;28;20046;-62
2022/05/22 08:06:59;;;;;;;11.43;5.53;;;;;;;15.09;65.51;99999.16;5098499;28;20070;-62
2022/05/22 08:09:48;;;;;;;;;;;;;;;15.09;65.47;99996.56;5113673;28;20051;-62
2022/05/22 08:12:43;;;;;;;9.40;5.90;;;;;;;15.09;65.37;99996.56;5098048;28;19922;-64
2022/05/22 08:15:30;;;;;;;12.25;5.32;;;;;;;15.12;65.48;99988.72;5113328;28;20084;-64
2022/05/22 08:18:20;;;;;;;10.10;6.20;;;;;;;15.13;65.39;99993.06;5098558;28;20401;-63
2022/05/22 08:21:07;;;;;;;10.65;6.07;;;;;;;15.16;65.57;99986.97;5098373;28;20047;-63
2022/05/22 08:23:59;;;;;;;11.98;6.40;;;;;;;15.17;65.48;99976.53;5098082;28;20101;-63
2022/05/22 08:26:48;;;;;;;10.73;6.05;;;;;;;15.19;65.47;99973.91;5098417;28;20516;-64
2022/05/22 08:29:33;;;;;;;10.63;6.43;;;;;;;15.19;65.41;99964.31;5113480;28;20110;-62
2022/05/22 08:32:23;;;;;;;12.63;7.00;;;;;;;15.23;65.64;99971.28;5098028;28;20042;-63
2022/05/22 08:35:12;;;;;;;12.57;6.43;;;;;;;15.25;65.57;99966.06;5098273;28;20414;-63
2022/05/22 08:37:57;;;;;;;8.73;5.88;;;;;;;15.28;65.22;99973.00;5101822;28;20562;-63
2022/05/22 08:40:48;;;;;;;11.98;6.10;;;;;;;15.31;65.50;99962.56;5101946;28;20046;-63
2022/05/22 08:43:44;;;;;;;12.70;6.72;;;;;;;15.34;65.47;99957.28;5102365;28;20050;-63
2022/05/22 08:46:34;;;;;;;9.80;5.50;;;;;;;15.37;65.32;99957.28;5102028;28;20085;-63
2022/05/22 08:49:27;;;;;;;10.48;5.70;;;;;;;15.38;65.25;99945.97;5101670;28;20053;-63
2022/05/22 08:52:31;;;;;;;9.90;5.32;;;;;;;15.39;65.15;99947.69;5101886;28;20042;-63
2022/05/22 08:58:55;;;;;;;12.98;5.53;;;;;;;15.42;65.10;99945.06;5130968;27;20054;-63
2022/05/22 08:58:59;;;;;;;;;;;;;;;15.45;65.20;99950.28;5117430;28;20062;-63
2022/05/22 09:02:06;;;;;;;14.95;7.00;;;;;;;15.47;65.05;99943.31;5116783;28;19966;-63
2022/05/22 09:05:02;;;;;;;10.52;5.72;;;;;;;15.50;65.05;99942.41;5101765;28;20105;-63
2022/05/22 09:07:52;;;;;;;10.68;6.38;;;;;;;15.56;65.19;99941.50;5101266;28;20090;-63
2022/05/22 09:10:48;;;;;;;9.85;5.40;;;;;;;15.58;65.16;99945.84;5116986;28;20058;-62
2022/05/22 09:13:59;;;;;;;9.90;6.10;;;;;;;15.61;64.98;99950.19;5116220;28;20050;-64
2022/05/22 09:17:12;;;;;;;8.60;5.57;;;;;;;15.64;65.11;99951.03;5116586;28;20135;-63
2022/05/22 09:20:16;;;;;;;13.02;5.60;;;;;;;15.67;64.92;99944.91;5101078;28;20096;-63
2022/05/22 09:23:12;;;;;;;11.63;5.97;;;;;;;15.71;64.94;99940.56;5101355;28;20405;-63
2022/05/22 09:26:08;;;;;;;9.50;6.13;;;;;;;15.71;64.73;99933.56;5101334;28;20513;-63
2022/05/22 09:29:48;;;;;;;13.10;6.35;;;;;;;15.73;64.81;99923.09;5101188;28;20513;-63
2022/05/22 09:33:17;;;;;;;8.25;4.97;;;;;;;15.75;64.82;99919.63;5054774;28;20128;-64
2022/05/22 09:36:19;;;;;;;12.98;5.68;;;;;;;15.78;64.90;99917.00;5100826;28;20160;-63
2022/05/22 09:39:44;;;;;;;9.82;5.65;;;;;;;15.83;64.88;99922.19;5116107;28;20046;-62
2022/05/22 09:42:47;;;;;;;;;;;;;;;15.86;64.79;99924.81;5110001;28;20461;-63
2022/05/22 09:45:38;;;;;;;11.52;5.40;;;;;;;15.88;64.74;99920.44;5115950;28;20408;-64
2022/05/22 09:48:32;;;;;;;9.63;4.88;;;;;;;15.91;64.71;99925.63;5115602;28;20588;-63
2022/05/22 09:51:31;;;;;;;10.13;5.90;;;;;;;15.94;64.55;99917.75;5100665;28;20050;-63
2022/05/22 09:54:24;;;;;;;11.52;5.95;;;;;;;15.96;64.60;99915.16;5100725;28;20049;-64
2022/05/22 09:57:23;;;;;;;8.20;5.07;;;;;;;15.98;64.63;99924.69;5099689;28;20417;-63
2022/05/22 10:00:16;;;;;;;13.50;5.53;;;;;;;16.01;64.46;99922.94;5116068;28;20124;-63
2022/05/22 10:03:08;;;;;;;13.73;5.57;;;;;;;16.03;64.43;99926.41;5100455;28;20095;-64
2022/05/22 10:05:52;;;;;;;8.27;5.15;;;;;;;16.05;64.40;99922.00;5115465;28;20034;-63
2022/05/22 10:08:51;;;;;;;9.93;5.25;;;;;;;16.06;64.19;99910.69;5115545;28;20086;-64
2022/05/22 10:11:59;;;;;;;8.18;5.07;;;;;;;16.04;64.37;99902.88;5100253;28;20132;-63
2022/05/22 10:15:11;;;;;;;9.32;5.22;;;;;;;16.10;64.10;99900.22;5115905;28;20046;-64
2022/05/22 10:18:26;;;;;;;10.15;4.80;;;;;;;16.13;63.99;99894.94;5115236;28;20410;-63
2022/05/22 10:21:16;;;;;;;;;;;;;;;16.14;64.05;99896.66;5115396;28;20083;-63
2022/05/22 10:24:15;;;;;;;9.02;4.72;;;;;;;16.16;63.86;99888.81;5115424;28;20376;-63
2022/05/22 10:27:23;;;;;;;5.95;4.53;;;;;;;16.18;63.91;99878.34;5099904;28;20043;-64
2022/05/22 10:30:36;;;;;;;6.13;4.28;;;;;;;16.19;63.89;99882.69;5099358;28;20138;-63
2022/05/22 10:33:31;;;;;;;9.55;3.92;;;;;;;16.22;63.69;99866.97;5114770;28;20563;-64
2022/05/22 10:36:32;;;;;;;9.00;4.10;;;;;;;16.24;63.79;99867.84;5099454;28;20169;-63
2022/05/22 10:39:20;;;;;;;10.73;4.35;;;;;;;16.26;63.83;99855.63;5115050;28;20116;-65
2022/05/22 10:42:47;;;;;;;5.88;4.07;;;;;;;16.28;63.84;99851.22;5099421;28;20533;-64
2022/05/22 10:45:37;;;;;;;12.23;4.20;;;;;;;16.32;63.56;99846.84;5114680;28;20047;-64
2022/05/22 10:48:23;;;;;;;11.88;5.63;;;;;;;16.33;63.60;99841.56;5098962;28;20051;-63
2022/05/22 10:51:11;;;;;;;7.47;4.30;;;;;;;16.35;63.41;99844.19;5099682;28;20046;-64
2022/05/22 10:54:04;;;;;;;10.48;4.68;;;;;;;16.36;63.32;99838.94;5099567;28;20093;-63
2022/05/22 10:56:51;;;;;;;7.03;4.20;;;;;;;16.37;63.35;99837.16;5128605;27;20050;-64
2022/05/22 10:59:42;;;;;;;7.65;4.22;;;;;;;16.38;63.39;99838.91;5113700;28;20050;-63
2022/05/22 11:02:33;;;;;;;9.68;4.85;;;;;;;16.40;63.33;99847.59;5114819;28;20049;-63
2022/05/22 11:05:27;;;;;;;11.60;5.32;;;;;;;16.40;63.24;99840.63;5098965;28;20046;-62
2022/05/22 11:08:26;;;;;;;9.73;5.13;;;;;;;16.43;63.29;99834.50;5114830;28;20157;-63
2022/05/22 11:11:12;;;;;;;7.95;3.95;;;;;;;16.44;63.19;99833.63;5098903;28;20097;-62
2022/05/22 11:14:12;;;;;;;9.25;4.22;;;;;;;16.46;63.29;99815.28;5114366;28;20471;-64
2022/05/22 11:17:21;;;;;;;11.98;4.70;;;;;;;16.48;63.08;99797.81;5099258;28;20050;-63
2022/05/22 11:20:23;;;;;;;11.23;4.85;;;;;;;16.51;63.03;99803.88;5098680;28;20524;-63
2022/05/22 11:23:41;;;;;;;11.32;4.50;;;;;;;16.52;63.11;99786.44;5099163;28;20051;-63
2022/05/22 11:26:35;;;;;;;9.10;4.22;;;;;;;16.52;62.92;99768.97;5114469;28;20082;-63
2022/05/22 11:29:29;;;;;;;7.97;4.18;;;;;;;16.53;62.81;99764.63;5113616;28;20061;-63
2022/05/22 11:32:35;;;;;;;9.73;5.47;;;;;;;16.55;62.77;99766.34;5114000;28;20058;-63
2022/05/22 11:35:27;;;;;;;13.52;5.03;;;;;;;16.58;62.91;99755.00;5098874;28;20510;-62
2022/05/22 11:38:38;;;;;;;10.18;5.60;;;;;;;16.61;62.92;99744.47;5098020;28;20587;-63
2022/05/22 11:41:35;;;;;;;9.27;4.75;;;;;;;16.64;62.78;99740.97;5098972;28;20100;-64
2022/05/22 11:45:01;;;;;;;8.35;4.40;;;;;;;16.67;62.62;99735.66;5113960;28;20054;-63
2022/05/22 11:48:04;;;;;;;8.13;4.40;;;;;;;16.71;62.52;99739.97;5098019;28;20111;-64
2022/05/22 11:51:06;;;;;;;9.43;4.63;;;;;;;16.70;62.50;99735.63;5098550;28;20046;-63
2022/05/22 11:54:22;;;;;;;9.43;4.47;;;;;;;16.68;62.69;99735.66;5098610;28;20142;-62
2022/05/22 11:57:28;;;;;;;9.07;4.70;;;;;;;16.72;62.50;99744.31;5098485;28;20054;-64
2022/05/22 12:00:32;;;;;;;13.38;4.68;;;;;;;16.75;62.52;99741.66;5098578;28;20104;-63
2022/05/22 12:03:41;;;;;;;8.20;4.63;;;;;;;16.74;62.56;99730.31;5098819;28;20054;-63
2022/05/22 12:06:46;;;;;;;10.27;5.07;;;;;;;16.77;62.53;99729.44;5098655;28;20517;-65
2022/05/22 12:09:49;;;;;;;11.40;4.70;;;;;;;16.81;62.53;99719.78;5098071;28;20414;-63
2022/05/22 12:12:55;;;;;;;9.98;4.90;;;;;;;16.83;62.57;99708.38;5102310;28;20229;-63
2022/05/22 12:15:54;;;;;;;10.80;5.13;;;;;;;16.83;62.34;99708.38;5102608;28;20505;-64
2022/05/22 12:19:16;;;;;;;9.07;4.82;;;;;;;16.87;62.44;99706.59;5102609;28;20050;-63
2022/05/22 12:22:15;;;;;;;9.32;4.57;;;;;;;16.91;62.30;99710.88;5102111;28;20092;-63
2022/05/22 12:25:05;;;;;;;17.55;5.63;;;;;;;16.91;62.23;99708.25;5101989;28;20054;-63
2022/05/22 12:27:57;;;;;;;9.95;4.28;;;;;;;16.93;62.47;99709.09;5102364;28;20055;-64
2022/05/22 12:30:48;;;;;;;14.75;6.28;;;;;;;16.94;62.46;99702.13;5116993;28;20043;-63
2022/05/22 12:33:39;;;;;;;10.40;5.68;;;;;;;16.97;62.29;99708.22;5117805;28;20054;-64
2022/05/22 12:36:30;;;;;;;10.18;5.00;;;;;;;16.99;62.48;99690.72;5117118;28;20100;-63
2022/05/22 12:39:18;;;;;;;9.70;5.60;;;;;;;17.02;62.40;99689.81;5102219;28;20043;-63
2022/05/22 12:42:17;;;;;;;8.57;5.25;;;;;;;17.04;62.27;99677.56;5101962;28;20054;-65
2022/05/22 12:45:03;;;;;;;8.30;5.20;;;;;;;17.05;62.23;99669.66;5101962;28;20125;-63
2022/05/22 12:47:52;;;;;;;9.30;5.90;;;;;;;17.07;62.25;99669.66;5102085;28;20049;-64
2022/05/22 12:50:49;;;;;;;11.30;5.70;;;;;;;17.11;62.11;99667.84;5101737;28;20096;-63
2022/05/22 12:53:42;;;;;;;12.73;5.68;;;;;;;17.11;62.25;99675.69;5101610;28;20047;-63
2022/05/22 12:56:32;;;;;;;10.82;5.47;;;;;;;17.10;62.03;99661.75;5116570;28;20051;-63
2022/05/22 12:59:31;;;;;;;12.80;5.60;;;;;;;17.11;61.99;99662.63;5101483;28;20134;-63
2022/05/22 13:02:33;;;;;;;11.02;5.90;;;;;;;17.12;62.19;99659.09;5101371;28;20046;-63
2022/05/22 13:05:26;;;;;;;9.75;5.50;;;;;;;17.16;62.03;99666.03;5116857;28;20050;-63
2022/05/22 13:08:27;;;;;;;9.50;4.88;;;;;;;17.18;62.19;99659.88;5101040;28;20096;-64
2022/05/22 13:11:25;;;;;;;10.80;4.95;;;;;;;17.19;61.90;99665.97;5101382;28;20043;-64
2022/05/22 13:14:23;;;;;;;10.05;4.90;;;;;;;17.21;62.17;99669.41;5130232;27;20050;-63
2022/05/22 13:17:30;;;;;;;13.50;4.95;;;;;;;17.23;61.92;99659.78;5101032;28;20096;-65
2022/05/22 13:20:30;;;;;;;10.77;5.47;;;;;;;17.24;62.06;99663.28;5101144;28;20571;-63
2022/05/22 13:23:29;;;;;;;10.65;4.82;;;;;;;17.27;61.99;99658.00;5116671;28;20047;-63
2022/05/22 13:26:19;;;;;;;10.45;5.38;;;;;;;17.28;61.74;99654.50;5101045;28;20479;-64
2022/05/22 13:29:16;;;;;;;8.43;5.22;;;;;;;17.29;61.87;99659.69;5116341;28;20101;-62
2022/05/22 13:32:12;;;;;;;6.93;5.00;;;;;;;17.31;61.94;99647.44;5100429;28;20062;-63
2022/05/22 13:35:04;;;;;;;11.52;5.70;;;;;;;17.33;61.83;99645.66;5101127;28;20407;-63